首页
METAR-TAF:

METAR-TAF

机场 :

拉什特, 伊朗

纬度: 37-12N, 经度: 049-38E, 海拔: -7米

当前天气观测

该预报发布于29分钟前的08:00 UTC
风速6节,风向北转东北
温度 14°C
湿度 77%
气压 1016 hPa
能见度10公里或以上
多云层高于1500英尺
多云层高于8000英尺

METAR: OIGG 030800Z 03006KT 9999 BKN015 BKN080 14/10 Q1016

时间: 12:59 (08:29 UTC)


TAF: 丢失

超过4000个机场的气象观测和天气预报(METAR&TAF报告)。

可查询的气象台以黄色和红色小点在地图上表示。

将鼠标移到小点上方,可查看气象台名称。

然后点击查看天气观测和预报。

如需切换地图:点击带黑十字的绿色按钮放大地图;点击带横线的绿色按钮缩小地图;或者点击绿色箭头查看邻近地区的地图。


METAR-TAF: